sensor_id;sensor_type;location;lat;lon;timestamp;temperature;humidity
52451;DHT22;38366;53.176;6.540;2023-03-11T00:01:31;1.00;99.90
52451;DHT22;38366;53.176;6.540;2023-03-11T00:03:57;1.40;99.90
52451;DHT22;38366;53.176;6.540;2023-03-11T00:06:24;1.00;99.90
52451;DHT22;38366;53.176;6.540;2023-03-11T00:08:50;1.00;99.90
52451;DHT22;38366;53.176;6.540;2023-03-11T00:11:16;2.40;99.90
52451;DHT22;38366;53.176;6.540;2023-03-11T00:13:44;2.20;99.90
52451;DHT22;38366;53.176;6.540;2023-03-11T00:16:10;1.00;99.90
52451;DHT22;38366;53.176;6.540;2023-03-11T00:18:35;1.00;99.90
52451;DHT22;38366;53.176;6.540;2023-03-11T00:21:01;1.10;99.90
52451;DHT22;38366;53.176;6.540;2023-03-11T00:23:27;1.30;99.90
52451;DHT22;38366;53.176;6.540;2023-03-11T00:25:53;1.20;99.90
52451;DHT22;38366;53.176;6.540;2023-03-11T00:28:19;1.30;99.90
52451;DHT22;38366;53.176;6.540;2023-03-11T00:30:46;1.00;99.90
52451;DHT22;38366;53.176;6.540;2023-03-11T00:33:13;1.00;99.90
52451;DHT22;38366;53.176;6.540;2023-03-11T00:35:40;0.90;99.90
52451;DHT22;38366;53.176;6.540;2023-03-11T00:38:07;1.60;99.90
52451;DHT22;38366;53.176;6.540;2023-03-11T00:40:34;0.90;99.90
52451;DHT22;38366;53.176;6.540;2023-03-11T00:43:00;1.20;99.90
52451;DHT22;38366;53.176;6.540;2023-03-11T00:45:27;1.10;99.90
52451;DHT22;38366;53.176;6.540;2023-03-11T00:47:53;0.80;99.90
52451;DHT22;38366;53.176;6.540;2023-03-11T00:50:23;0.80;99.90
52451;DHT22;38366;53.176;6.540;2023-03-11T00:52:49;0.80;99.90
52451;DHT22;38366;53.176;6.540;2023-03-11T00:55:30;0.80;99.90
52451;DHT22;38366;53.176;6.540;2023-03-11T00:57:58;0.80;99.90
52451;DHT22;38366;53.176;6.540;2023-03-11T01:00:26;0.80;99.90
52451;DHT22;38366;53.176;6.540;2023-03-11T01:02:53;0.80;99.90
52451;DHT22;38366;53.176;6.540;2023-03-11T01:05:21;0.80;99.90
52451;DHT22;38366;53.176;6.540;2023-03-11T01:07:47;0.80;99.90
52451;DHT22;38366;53.176;6.540;2023-03-11T01:10:13;1.80;99.90
52451;DHT22;38366;53.176;6.540;2023-03-11T01:12:39;0.90;99.90
52451;DHT22;38366;53.176;6.540;2023-03-11T01:15:06;0.80;99.90
52451;DHT22;38366;53.176;6.540;2023-03-11T01:17:32;1.90;99.90
52451;DHT22;38366;53.176;6.540;2023-03-11T01:19:57;0.70;99.90
52451;DHT22;38366;53.176;6.540;2023-03-11T01:22:23;0.70;99.90
52451;DHT22;38366;53.176;6.540;2023-03-11T01:24:49;0.70;99.90
52451;DHT22;38366;53.176;6.540;2023-03-11T01:27:14;0.70;99.90
52451;DHT22;38366;53.176;6.540;2023-03-11T01:29:40;0.70;99.90
52451;DHT22;38366;53.176;6.540;2023-03-11T01:32:06;0.80;99.90
52451;DHT22;38366;53.176;6.540;2023-03-11T01:34:32;0.80;99.90
52451;DHT22;38366;53.176;6.540;2023-03-11T01:37:01;0.70;99.90
52451;DHT22;38366;53.176;6.540;2023-03-11T01:39:27;0.80;99.90
52451;DHT22;38366;53.176;6.540;2023-03-11T01:41:53;0.80;99.90
52451;DHT22;38366;53.176;6.540;2023-03-11T01:44:20;1.20;99.90
52451;DHT22;38366;53.176;6.540;2023-03-11T01:49:19;1.20;99.90
52451;DHT22;38366;53.176;6.540;2023-03-11T01:51:48;1.80;99.90
52451;DHT22;38366;53.176;6.540;2023-03-11T01:54:26;0.70;99.90
52451;DHT22;38366;53.176;6.540;2023-03-11T01:56:53;1.10;99.90
52451;DHT22;38366;53.176;6.540;2023-03-11T01:59:30;0.70;99.90
52451;DHT22;38366;53.176;6.540;2023-03-11T02:04:54;0.70;99.90
52451;DHT22;38366;53.176;6.540;2023-03-11T02:07:21;1.10;99.90
52451;DHT22;38366;53.176;6.540;2023-03-11T02:09:47;1.00;99.90
52451;DHT22;38366;53.176;6.540;2023-03-11T02:12:13;2.20;99.90
52451;DHT22;38366;53.176;6.540;2023-03-11T02:14:43;0.70;99.90
52451;DHT22;38366;53.176;6.540;2023-03-11T02:17:10;1.60;99.90
52451;DHT22;38366;53.176;6.540;2023-03-11T02:22:20;0.70;99.90
52451;DHT22;38366;53.176;6.540;2023-03-11T02:27:22;0.60;99.90
52451;DHT22;38366;53.176;6.540;2023-03-11T02:29:50;0.80;99.90
52451;DHT22;38366;53.176;6.540;2023-03-11T02:32:17;0.50;99.90
52451;DHT22;38366;53.176;6.540;2023-03-11T02:34:43;0.40;99.90
52451;DHT22;38366;53.176;6.540;2023-03-11T02:37:11;0.40;99.90
52451;DHT22;38366;53.176;6.540;2023-03-11T02:39:41;0.40;99.90
52451;DHT22;38366;53.176;6.540;2023-03-11T02:44:37;0.30;99.90
52451;DHT22;38366;53.176;6.540;2023-03-11T02:47:04;0.30;99.90
52451;DHT22;38366;53.176;6.540;2023-03-11T02:49:30;0.30;99.90
52451;DHT22;38366;53.176;6.540;2023-03-11T02:51:56;0.90;99.90
52451;DHT22;38366;53.176;6.540;2023-03-11T02:54:22;1.30;99.90
52451;DHT22;38366;53.176;6.540;2023-03-11T02:56:48;1.50;99.90
52451;DHT22;38366;53.176;6.540;2023-03-11T02:59:13;1.10;99.90
52451;DHT22;38366;53.176;6.540;2023-03-11T03:01:39;0.10;99.90
52451;DHT22;38366;53.176;6.540;2023-03-11T03:04:05;0.10;99.90
52451;DHT22;38366;53.176;6.540;2023-03-11T03:06:30;0.20;99.90
52451;DHT22;38366;53.176;6.540;2023-03-11T03:08:56;0.10;99.90
52451;DHT22;38366;53.176;6.540;2023-03-11T03:11:22;0.00;99.90
52451;DHT22;38366;53.176;6.540;2023-03-11T03:13:47;0.40;99.90
52451;DHT22;38366;53.176;6.540;2023-03-11T03:16:13;0.00;99.90
52451;DHT22;38366;53.176;6.540;2023-03-11T03:18:39;-0.10;99.90
52451;DHT22;38366;53.176;6.540;2023-03-11T03:21:05;-0.20;99.90
52451;DHT22;38366;53.176;6.540;2023-03-11T03:23:30;0.00;99.90
52451;DHT22;38366;53.176;6.540;2023-03-11T03:26:02;-0.30;99.90
52451;DHT22;38366;53.176;6.540;2023-03-11T03:28:28;-0.40;99.90
52451;DHT22;38366;53.176;6.540;2023-03-11T03:30:54;-0.40;99.90
52451;DHT22;38366;53.176;6.540;2023-03-11T03:33:19;1.10;99.90
52451;DHT22;38366;53.176;6.540;2023-03-11T03:35:45;-0.50;99.90
52451;DHT22;38366;53.176;6.540;2023-03-11T03:38:11;-0.60;99.90
52451;DHT22;38366;53.176;6.540;2023-03-11T03:40:37;-0.60;99.90
52451;DHT22;38366;53.176;6.540;2023-03-11T03:43:04;-0.30;99.90
52451;DHT22;38366;53.176;6.540;2023-03-11T03:45:30;-0.70;99.90
52451;DHT22;38366;53.176;6.540;2023-03-11T03:47:55;-0.70;99.90
52451;DHT22;38366;53.176;6.540;2023-03-11T03:50:21;-0.80;99.90
52451;DHT22;38366;53.176;6.540;2023-03-11T03:52:47;-0.30;99.90
52451;DHT22;38366;53.176;6.540;2023-03-11T03:55:12;-0.70;99.90
52451;DHT22;38366;53.176;6.540;2023-03-11T03:57:38;-0.90;99.90
52451;DHT22;38366;53.176;6.540;2023-03-11T04:00:05;-0.90;99.90
52451;DHT22;38366;53.176;6.540;2023-03-11T04:02:33;-0.90;99.90
52451;DHT22;38366;53.176;6.540;2023-03-11T04:04:59;-0.60;99.90
52451;DHT22;38366;53.176;6.540;2023-03-11T04:07:24;-0.90;99.90
52451;DHT22;38366;53.176;6.540;2023-03-11T04:09:50;-1.00;99.90
52451;DHT22;38366;53.176;6.540;2023-03-11T04:12:16;-1.00;99.90
52451;DHT22;38366;53.176;6.540;2023-03-11T04:14:42;-1.10;99.90
52451;DHT22;38366;53.176;6.540;2023-03-11T04:17:11;0.20;99.90
52451;DHT22;38366;53.176;6.540;2023-03-11T04:19:37;-1.20;99.90
52451;DHT22;38366;53.176;6.540;2023-03-11T04:22:03;-1.20;99.90
52451;DHT22;38366;53.176;6.540;2023-03-11T04:24:29;-1.20;99.90
52451;DHT22;38366;53.176;6.540;2023-03-11T04:26:54;-1.30;99.90
52451;DHT22;38366;53.176;6.540;2023-03-11T04:29:20;-1.30;99.90
52451;DHT22;38366;53.176;6.540;2023-03-11T04:31:46;-1.30;99.90
52451;DHT22;38366;53.176;6.540;2023-03-11T04:34:12;-1.30;99.90
52451;DHT22;38366;53.176;6.540;2023-03-11T04:36:37;-1.40;99.90
52451;DHT22;38366;53.176;6.540;2023-03-11T04:39:04;-1.40;99.90
52451;DHT22;38366;53.176;6.540;2023-03-11T04:41:29;-1.40;99.90
52451;DHT22;38366;53.176;6.540;2023-03-11T04:43:55;-1.50;99.90
52451;DHT22;38366;53.176;6.540;2023-03-11T04:46:21;-1.40;99.90
52451;DHT22;38366;53.176;6.540;2023-03-11T04:48:46;-1.50;99.90
52451;DHT22;38366;53.176;6.540;2023-03-11T04:51:12;-1.50;99.90
52451;DHT22;38366;53.176;6.540;2023-03-11T04:53:38;-1.50;99.90
52451;DHT22;38366;53.176;6.540;2023-03-11T04:56:03;-1.60;99.90
52451;DHT22;38366;53.176;6.540;2023-03-11T04:58:29;-1.60;99.90
52451;DHT22;38366;53.176;6.540;2023-03-11T05:00:55;-1.10;99.90
52451;DHT22;38366;53.176;6.540;2023-03-11T05:03:21;-1.70;99.90
52451;DHT22;38366;53.176;6.540;2023-03-11T05:05:47;-0.80;99.90
52451;DHT22;38366;53.176;6.540;2023-03-11T05:08:12;-1.70;99.90
52451;DHT22;38366;53.176;6.540;2023-03-11T05:10:41;-1.50;99.90
52451;DHT22;38366;53.176;6.540;2023-03-11T05:13:07;-1.80;99.90
52451;DHT22;38366;53.176;6.540;2023-03-11T05:15:33;-1.00;99.90
52451;DHT22;38366;53.176;6.540;2023-03-11T05:17:59;-1.80;99.90
52451;DHT22;38366;53.176;6.540;2023-03-11T05:20:25;-1.80;99.90
52451;DHT22;38366;53.176;6.540;2023-03-11T05:22:50;-1.80;99.90
52451;DHT22;38366;53.176;6.540;2023-03-11T05:25:16;-1.80;99.90
52451;DHT22;38366;53.176;6.540;2023-03-11T05:27:42;-1.80;99.90
52451;DHT22;38366;53.176;6.540;2023-03-11T05:30:08;-1.80;99.90
52451;DHT22;38366;53.176;6.540;2023-03-11T05:32:34;-1.90;99.90
52451;DHT22;38366;53.176;6.540;2023-03-11T05:35:00;-1.90;99.90
52451;DHT22;38366;53.176;6.540;2023-03-11T05:37:26;-1.90;99.90
52451;DHT22;38366;53.176;6.540;2023-03-11T05:39:52;-0.90;99.90
52451;DHT22;38366;53.176;6.540;2023-03-11T05:42:18;-1.90;99.90
52451;DHT22;38366;53.176;6.540;2023-03-11T05:44:43;-1.90;99.90
52451;DHT22;38366;53.176;6.540;2023-03-11T05:47:09;-1.90;99.90
52451;DHT22;38366;53.176;6.540;2023-03-11T05:49:35;-2.00;99.90
52451;DHT22;38366;53.176;6.540;2023-03-11T05:52:00;-1.90;99.90
52451;DHT22;38366;53.176;6.540;2023-03-11T05:54:26;-1.40;99.90
52451;DHT22;38366;53.176;6.540;2023-03-11T05:56:52;-1.20;99.90
52451;DHT22;38366;53.176;6.540;2023-03-11T05:59:18;-1.30;99.90
52451;DHT22;38366;53.176;6.540;2023-03-11T06:01:43;-2.00;99.90
52451;DHT22;38366;53.176;6.540;2023-03-11T06:04:09;-0.80;99.90
52451;DHT22;38366;53.176;6.540;2023-03-11T06:06:36;-2.00;99.90
52451;DHT22;38366;53.176;6.540;2023-03-11T06:09:02;-2.00;99.90
52451;DHT22;38366;53.176;6.540;2023-03-11T06:11:28;-2.00;99.90
52451;DHT22;38366;53.176;6.540;2023-03-11T06:13:55;-2.00;99.90
52451;DHT22;38366;53.176;6.540;2023-03-11T06:16:23;-2.00;99.90
52451;DHT22;38366;53.176;6.540;2023-03-11T06:18:49;-2.00;99.90
52451;DHT22;38366;53.176;6.540;2023-03-11T06:21:17;-2.00;99.90
52451;DHT22;38366;53.176;6.540;2023-03-11T06:23:43;-2.00;99.90
52451;DHT22;38366;53.176;6.540;2023-03-11T06:26:09;-2.00;99.90
52451;DHT22;38366;53.176;6.540;2023-03-11T06:28:36;-2.00;99.90
52451;DHT22;38366;53.176;6.540;2023-03-11T06:31:10;-2.00;99.90
52451;DHT22;38366;53.176;6.540;2023-03-11T06:33:36;-2.00;99.90
52451;DHT22;38366;53.176;6.540;2023-03-11T06:36:03;-1.90;99.90
52451;DHT22;38366;53.176;6.540;2023-03-11T06:38:30;-1.90;99.90
52451;DHT22;38366;53.176;6.540;2023-03-11T06:41:04;-1.80;99.90
52451;DHT22;38366;53.176;6.540;2023-03-11T06:43:31;-1.70;99.90
52451;DHT22;38366;53.176;6.540;2023-03-11T06:45:57;-1.10;99.90
52451;DHT22;38366;53.176;6.540;2023-03-11T06:48:23;-1.60;99.90
52451;DHT22;38366;53.176;6.540;2023-03-11T06:50:57;-0.40;99.90
52451;DHT22;38366;53.176;6.540;2023-03-11T06:53:24;-1.00;99.90
52451;DHT22;38366;53.176;6.540;2023-03-11T06:56:23;-1.30;99.90
52451;DHT22;38366;53.176;6.540;2023-03-11T06:58:42;-1.10;99.90
52451;DHT22;38366;53.176;6.540;2023-03-11T07:01:12;-0.50;99.90
52451;DHT22;38366;53.176;6.540;2023-03-11T07:03:38;-0.10;99.90
52451;DHT22;38366;53.176;6.540;2023-03-11T07:06:05;-0.70;99.90
52451;DHT22;38366;53.176;6.540;2023-03-11T07:08:31;-0.60;99.90
52451;DHT22;38366;53.176;6.540;2023-03-11T07:11:26;-0.40;99.90
52451;DHT22;38366;53.176;6.540;2023-03-11T07:13:52;-0.30;99.90
52451;DHT22;38366;53.176;6.540;2023-03-11T07:16:21;-0.10;99.90
52451;DHT22;38366;53.176;6.540;2023-03-11T07:18:48;0.00;99.90
52451;DHT22;38366;53.176;6.540;2023-03-11T07:21:16;0.20;99.90
52451;DHT22;38366;53.176;6.540;2023-03-11T07:23:42;1.50;99.90
52451;DHT22;38366;53.176;6.540;2023-03-11T07:26:09;0.50;99.90
52451;DHT22;38366;53.176;6.540;2023-03-11T07:28:36;2.10;99.90
52451;DHT22;38366;53.176;6.540;2023-03-11T07:31:11;0.90;99.90
52451;DHT22;38366;53.176;6.540;2023-03-11T07:33:37;1.10;99.90
52451;DHT22;38366;53.176;6.540;2023-03-11T07:36:08;1.40;99.90
52451;DHT22;38366;53.176;6.540;2023-03-11T07:38:34;1.50;99.90
52451;DHT22;38366;53.176;6.540;2023-03-11T07:41:01;1.70;99.90
52451;DHT22;38366;53.176;6.540;2023-03-11T07:43:26;1.90;99.90
52451;DHT22;38366;53.176;6.540;2023-03-11T07:46:10;2.00;99.90
52451;DHT22;38366;53.176;6.540;2023-03-11T07:48:38;2.10;99.90
52451;DHT22;38366;53.176;6.540;2023-03-11T07:51:08;3.00;99.90
52451;DHT22;38366;53.176;6.540;2023-03-11T07:53:34;2.40;99.90
52451;DHT22;38366;53.176;6.540;2023-03-11T07:56:00;3.10;99.90
52451;DHT22;38366;53.176;6.540;2023-03-11T07:58:26;4.20;99.90
52451;DHT22;38366;53.176;6.540;2023-03-11T08:00:52;4.80;99.90
52451;DHT22;38366;53.176;6.540;2023-03-11T08:03:22;5.50;99.90
52451;DHT22;38366;53.176;6.540;2023-03-11T08:05:48;6.10;99.90
52451;DHT22;38366;53.176;6.540;2023-03-11T08:08:14;6.50;99.90
52451;DHT22;38366;53.176;6.540;2023-03-11T08:10:40;6.90;99.90
52451;DHT22;38366;53.176;6.540;2023-03-11T08:13:06;7.30;99.90
52451;DHT22;38366;53.176;6.540;2023-03-11T08:15:31;7.50;99.90
52451;DHT22;38366;53.176;6.540;2023-03-11T08:17:57;7.80;99.90
52451;DHT22;38366;53.176;6.540;2023-03-11T08:20:23;8.20;99.90
52451;DHT22;38366;53.176;6.540;2023-03-11T08:22:48;8.20;99.90
52451;DHT22;38366;53.176;6.540;2023-03-11T08:25:14;8.50;99.90
52451;DHT22;38366;53.176;6.540;2023-03-11T08:27:40;8.80;99.90
52451;DHT22;38366;53.176;6.540;2023-03-11T08:30:08;8.90;99.90
52451;DHT22;38366;53.176;6.540;2023-03-11T08:32:34;9.60;99.90
52451;DHT22;38366;53.176;6.540;2023-03-11T08:35:00;10.00;99.90
52451;DHT22;38366;53.176;6.540;2023-03-11T08:37:25;10.40;99.90
52451;DHT22;38366;53.176;6.540;2023-03-11T08:39:51;10.60;99.90
52451;DHT22;38366;53.176;6.540;2023-03-11T08:42:17;10.80;99.90
52451;DHT22;38366;53.176;6.540;2023-03-11T08:44:43;11.20;99.90
52451;DHT22;38366;53.176;6.540;2023-03-11T08:47:09;11.20;99.90
52451;DHT22;38366;53.176;6.540;2023-03-11T08:49:36;11.60;99.90
52451;DHT22;38366;53.176;6.540;2023-03-11T08:52:02;11.70;99.90
52451;DHT22;38366;53.176;6.540;2023-03-11T08:54:28;11.90;99.90
52451;DHT22;38366;53.176;6.540;2023-03-11T08:56:53;12.10;99.90
52451;DHT22;38366;53.176;6.540;2023-03-11T08:59:19;11.90;99.90
52451;DHT22;38366;53.176;6.540;2023-03-11T09:01:45;12.20;99.90
52451;DHT22;38366;53.176;6.540;2023-03-11T09:04:11;12.10;99.90
52451;DHT22;38366;53.176;6.540;2023-03-11T09:06:41;12.10;99.90
52451;DHT22;38366;53.176;6.540;2023-03-11T09:09:09;12.40;99.90
52451;DHT22;38366;53.176;6.540;2023-03-11T09:11:36;12.90;99.90
52451;DHT22;38366;53.176;6.540;2023-03-11T09:14:03;12.90;99.90
52451;DHT22;38366;53.176;6.540;2023-03-11T09:16:28;13.20;99.90
52451;DHT22;38366;53.176;6.540;2023-03-11T09:18:54;13.30;99.90
52451;DHT22;38366;53.176;6.540;2023-03-11T09:21:21;13.30;99.90
52451;DHT22;38366;53.176;6.540;2023-03-11T09:23:46;13.50;99.90
52451;DHT22;38366;53.176;6.540;2023-03-11T09:26:12;13.50;99.40
52451;DHT22;38366;53.176;6.540;2023-03-11T09:28:40;13.80;98.90
52451;DHT22;38366;53.176;6.540;2023-03-11T09:31:05;13.90;98.60
52451;DHT22;38366;53.176;6.540;2023-03-11T09:33:36;13.80;99.30
52451;DHT22;38366;53.176;6.540;2023-03-11T09:36:01;13.80;99.50
52451;DHT22;38366;53.176;6.540;2023-03-11T09:38:27;13.50;99.90
52451;DHT22;38366;53.176;6.540;2023-03-11T09:40:55;13.60;99.90
52451;DHT22;38366;53.176;6.540;2023-03-11T09:51:37;13.70;99.90
52451;DHT22;38366;53.176;6.540;2023-03-11T09:54:10;13.80;98.00
52451;DHT22;38366;53.176;6.540;2023-03-11T09:56:37;14.00;97.90
52451;DHT22;38366;53.176;6.540;2023-03-11T09:59:12;13.80;99.80
52451;DHT22;38366;53.176;6.540;2023-03-11T10:01:45;14.00;99.10
52451;DHT22;38366;53.176;6.540;2023-03-11T10:04:15;14.00;98.60
52451;DHT22;38366;53.176;6.540;2023-03-11T10:06:44;14.20;97.90
52451;DHT22;38366;53.176;6.540;2023-03-11T10:09:32;14.40;97.80
52451;DHT22;38366;53.176;6.540;2023-03-11T10:28:25;15.70;95.80
52451;DHT22;38366;53.176;6.540;2023-03-11T10:31:03;15.20;96.00
52451;DHT22;38366;53.176;6.540;2023-03-11T10:34:02;15.30;96.60
52451;DHT22;38366;53.176;6.540;2023-03-11T10:36:49;15.30;97.60
52451;DHT22;38366;53.176;6.540;2023-03-11T10:39:15;15.50;95.80
52451;DHT22;38366;53.176;6.540;2023-03-11T10:41:55;15.20;97.10
52451;DHT22;38366;53.176;6.540;2023-03-11T10:44:31;15.40;98.40
52451;DHT22;38366;53.176;6.540;2023-03-11T10:46:57;15.60;97.80
52451;DHT22;38366;53.176;6.540;2023-03-11T10:49:23;15.80;97.40
52451;DHT22;38366;53.176;6.540;2023-03-11T10:51:50;15.50;97.20
52451;DHT22;38366;53.176;6.540;2023-03-11T10:54:24;15.70;97.30
52451;DHT22;38366;53.176;6.540;2023-03-11T10:56:58;15.90;96.40
52451;DHT22;38366;53.176;6.540;2023-03-11T11:02:49;15.40;96.50
52451;DHT22;38366;53.176;6.540;2023-03-11T11:07:48;15.30;96.40
52451;DHT22;38366;53.176;6.540;2023-03-11T11:10:23;14.80;96.70
52451;DHT22;38366;53.176;6.540;2023-03-11T11:12:53;14.90;97.00
52451;DHT22;38366;53.176;6.540;2023-03-11T11:16:22;14.80;97.20
52451;DHT22;38366;53.176;6.540;2023-03-11T11:18:47;14.80;97.00
52451;DHT22;38366;53.176;6.540;2023-03-11T11:21:36;15.20;96.50
52451;DHT22;38366;53.176;6.540;2023-03-11T11:24:16;15.40;96.80
52451;DHT22;38366;53.176;6.540;2023-03-11T11:27:02;15.40;95.60
52451;DHT22;38366;53.176;6.540;2023-03-11T11:29:28;15.60;96.20
52451;DHT22;38366;53.176;6.540;2023-03-11T11:32:17;16.30;95.60
52451;DHT22;38366;53.176;6.540;2023-03-11T11:35:03;16.20;95.30
52451;DHT22;38366;53.176;6.540;2023-03-11T11:37:33;16.20;95.00
52451;DHT22;38366;53.176;6.540;2023-03-11T11:40:05;16.30;95.50
52451;DHT22;38366;53.176;6.540;2023-03-11T11:42:37;16.20;95.60
52451;DHT22;38366;53.176;6.540;2023-03-11T11:47:35;15.50;95.50
52451;DHT22;38366;53.176;6.540;2023-03-11T11:50:06;15.40;95.20
52451;DHT22;38366;53.176;6.540;2023-03-11T11:52:41;15.60;95.60
52451;DHT22;38366;53.176;6.540;2023-03-11T11:55:24;15.50;95.30
52451;DHT22;38366;53.176;6.540;2023-03-11T11:57:51;15.50;96.00
52451;DHT22;38366;53.176;6.540;2023-03-11T12:00:22;16.00;96.10
52451;DHT22;38366;53.176;6.540;2023-03-11T12:05:49;16.40;95.60
52451;DHT22;38366;53.176;6.540;2023-03-11T12:08:22;16.40;95.10
52451;DHT22;38366;53.176;6.540;2023-03-11T12:11:06;16.10;93.80
52451;DHT22;38366;53.176;6.540;2023-03-11T12:13:44;16.30;93.90
52451;DHT22;38366;53.176;6.540;2023-03-11T12:18:56;16.30;94.00
52451;DHT22;38366;53.176;6.540;2023-03-11T12:21:41;16.30;93.90
52451;DHT22;38366;53.176;6.540;2023-03-11T12:29:45;15.80;93.70
52451;DHT22;38366;53.176;6.540;2023-03-11T12:32:31;15.70;93.80
52451;DHT22;38366;53.176;6.540;2023-03-11T12:35:22;15.60;93.80
52451;DHT22;38366;53.176;6.540;2023-03-11T12:46:09;14.90;93.90
52451;DHT22;38366;53.176;6.540;2023-03-11T12:48:45;14.90;93.90
52451;DHT22;38366;53.176;6.540;2023-03-11T12:54:27;14.70;93.90
52451;DHT22;38366;53.176;6.540;2023-03-11T12:57:22;14.60;94.80
52451;DHT22;38366;53.176;6.540;2023-03-11T13:02:55;14.90;94.30
52451;DHT22;38366;53.176;6.540;2023-03-11T13:05:30;15.40;94.00
52451;DHT22;38366;53.176;6.540;2023-03-11T13:08:06;15.80;94.00
52451;DHT22;38366;53.176;6.540;2023-03-11T13:10:44;15.90;93.20
52451;DHT22;38366;53.176;6.540;2023-03-11T13:18:47;16.20;93.30
52451;DHT22;38366;53.176;6.540;2023-03-11T13:27:09;15.80;93.10
52451;DHT22;38366;53.176;6.540;2023-03-11T13:29:44;15.20;93.20
52451;DHT22;38366;53.176;6.540;2023-03-11T13:42:50;12.30;96.00
52451;DHT22;38366;53.176;6.540;2023-03-11T13:45:33;11.90;95.90
52451;DHT22;38366;53.176;6.540;2023-03-11T13:51:04;11.60;97.00
52451;DHT22;38366;53.176;6.540;2023-03-11T13:53:37;11.60;97.60
52451;DHT22;38366;53.176;6.540;2023-03-11T13:56:04;11.60;97.10
52451;DHT22;38366;53.176;6.540;2023-03-11T13:58:30;11.50;97.60
52451;DHT22;38366;53.176;6.540;2023-03-11T14:01:00;11.30;98.30
52451;DHT22;38366;53.176;6.540;2023-03-11T14:03:41;11.30;98.10
52451;DHT22;38366;53.176;6.540;2023-03-11T14:06:10;11.20;97.50
52451;DHT22;38366;53.176;6.540;2023-03-11T14:08:39;11.00;97.50
52451;DHT22;38366;53.176;6.540;2023-03-11T14:13:41;10.50;98.60
52451;DHT22;38366;53.176;6.540;2023-03-11T14:16:12;10.20;97.80
52451;DHT22;38366;53.176;6.540;2023-03-11T14:18:41;10.20;98.70
52451;DHT22;38366;53.176;6.540;2023-03-11T14:21:21;10.30;98.90
52451;DHT22;38366;53.176;6.540;2023-03-11T14:23:52;10.30;98.30
52451;DHT22;38366;53.176;6.540;2023-03-11T14:26:20;10.10;98.60
52451;DHT22;38366;53.176;6.540;2023-03-11T14:32:27;10.20;99.00
52451;DHT22;38366;53.176;6.540;2023-03-11T14:34:54;10.10;98.60
52451;DHT22;38366;53.176;6.540;2023-03-11T14:37:35;10.00;99.00
52451;DHT22;38366;53.176;6.540;2023-03-11T14:40:03;9.90;98.60
52451;DHT22;38366;53.176;6.540;2023-03-11T14:42:40;9.80;99.30
52451;DHT22;38366;53.176;6.540;2023-03-11T14:45:14;9.70;98.90
52451;DHT22;38366;53.176;6.540;2023-03-11T14:50:17;9.50;99.00
52451;DHT22;38366;53.176;6.540;2023-03-11T14:52:44;9.40;99.20
52451;DHT22;38366;53.176;6.540;2023-03-11T14:55:19;9.30;99.70
52451;DHT22;38366;53.176;6.540;2023-03-11T14:58:18;9.10;99.40
52451;DHT22;38366;53.176;6.540;2023-03-11T15:01:13;9.00;99.70
52451;DHT22;38366;53.176;6.540;2023-03-11T15:03:56;8.90;99.60
52451;DHT22;38366;53.176;6.540;2023-03-11T15:06:27;9.00;99.70
52451;DHT22;38366;53.176;6.540;2023-03-11T15:16:49;8.10;99.90
52451;DHT22;38366;53.176;6.540;2023-03-11T15:21:54;7.80;99.90
52451;DHT22;38366;53.176;6.540;2023-03-11T15:24:27;7.50;99.90
52451;DHT22;38366;53.176;6.540;2023-03-11T15:27:00;7.00;99.90
52451;DHT22;38366;53.176;6.540;2023-03-11T15:29:27;7.00;99.90
52451;DHT22;38366;53.176;6.540;2023-03-11T15:31:54;6.70;99.90
52451;DHT22;38366;53.176;6.540;2023-03-11T15:34:31;6.60;99.90
52451;DHT22;38366;53.176;6.540;2023-03-11T15:37:23;6.40;99.90
52451;DHT22;38366;53.176;6.540;2023-03-11T15:39:51;6.30;99.90
52451;DHT22;38366;53.176;6.540;2023-03-11T15:42:22;6.40;99.90
52451;DHT22;38366;53.176;6.540;2023-03-11T15:45:15;6.50;99.90
52451;DHT22;38366;53.176;6.540;2023-03-11T15:47:42;6.40;99.90
52451;DHT22;38366;53.176;6.540;2023-03-11T15:50:23;6.40;99.90
52451;DHT22;38366;53.176;6.540;2023-03-11T15:52:51;6.40;99.90
52451;DHT22;38366;53.176;6.540;2023-03-11T15:55:17;6.40;99.90
52451;DHT22;38366;53.176;6.540;2023-03-11T15:57:45;6.30;99.90
52451;DHT22;38366;53.176;6.540;2023-03-11T16:00:19;6.30;99.90
52451;DHT22;38366;53.176;6.540;2023-03-11T16:02:47;6.40;99.90
52451;DHT22;38366;53.176;6.540;2023-03-11T16:05:16;6.40;99.90
52451;DHT22;38366;53.176;6.540;2023-03-11T16:07:42;6.40;99.90
52451;DHT22;38366;53.176;6.540;2023-03-11T16:10:09;6.40;99.90
52451;DHT22;38366;53.176;6.540;2023-03-11T16:12:35;6.20;99.90
52451;DHT22;38366;53.176;6.540;2023-03-11T16:15:01;5.90;99.90
52451;DHT22;38366;53.176;6.540;2023-03-11T16:17:27;5.60;99.90
52451;DHT22;38366;53.176;6.540;2023-03-11T16:19:52;5.50;99.90
52451;DHT22;38366;53.176;6.540;2023-03-11T16:22:30;5.30;99.90
52451;DHT22;38366;53.176;6.540;2023-03-11T16:24:57;5.20;99.90
52451;DHT22;38366;53.176;6.540;2023-03-11T16:27:24;5.30;99.90
52451;DHT22;38366;53.176;6.540;2023-03-11T16:29:49;5.30;99.90
52451;DHT22;38366;53.176;6.540;2023-03-11T16:32:15;5.40;99.90
52451;DHT22;38366;53.176;6.540;2023-03-11T16:34:41;5.30;99.90
52451;DHT22;38366;53.176;6.540;2023-03-11T16:37:07;5.40;99.90
52451;DHT22;38366;53.176;6.540;2023-03-11T16:39:33;5.60;99.90
52451;DHT22;38366;53.176;6.540;2023-03-11T16:42:00;5.50;99.90
52451;DHT22;38366;53.176;6.540;2023-03-11T16:44:26;5.60;99.90
52451;DHT22;38366;53.176;6.540;2023-03-11T16:46:51;5.70;99.90
52451;DHT22;38366;53.176;6.540;2023-03-11T16:49:17;5.80;99.90
52451;DHT22;38366;53.176;6.540;2023-03-11T16:51:43;5.80;99.90
52451;DHT22;38366;53.176;6.540;2023-03-11T16:54:08;5.90;99.90
52451;DHT22;38366;53.176;6.540;2023-03-11T16:56:34;5.90;99.90
52451;DHT22;38366;53.176;6.540;2023-03-11T16:59:01;5.80;99.90
52451;DHT22;38366;53.176;6.540;2023-03-11T17:01:27;5.80;99.90
52451;DHT22;38366;53.176;6.540;2023-03-11T17:03:52;5.80;99.90
52451;DHT22;38366;53.176;6.540;2023-03-11T17:06:19;5.80;99.90
52451;DHT22;38366;53.176;6.540;2023-03-11T17:08:47;5.70;99.90
52451;DHT22;38366;53.176;6.540;2023-03-11T17:11:15;5.70;99.90
52451;DHT22;38366;53.176;6.540;2023-03-11T17:13:41;5.60;99.90
52451;DHT22;38366;53.176;6.540;2023-03-11T17:16:07;5.60;99.90
52451;DHT22;38366;53.176;6.540;2023-03-11T17:18:33;5.50;99.90
52451;DHT22;38366;53.176;6.540;2023-03-11T17:20:59;5.40;99.90
52451;DHT22;38366;53.176;6.540;2023-03-11T17:23:26;5.70;99.90
52451;DHT22;38366;53.176;6.540;2023-03-11T17:25:52;5.30;99.90
52451;DHT22;38366;53.176;6.540;2023-03-11T17:28:17;5.70;99.90
52451;DHT22;38366;53.176;6.540;2023-03-11T17:30:43;5.20;99.90
52451;DHT22;38366;53.176;6.540;2023-03-11T17:33:10;5.00;99.90
52451;DHT22;38366;53.176;6.540;2023-03-11T17:35:35;5.50;99.90
52451;DHT22;38366;53.176;6.540;2023-03-11T17:38:02;4.90;99.90
52451;DHT22;38366;53.176;6.540;2023-03-11T17:40:28;4.80;99.90
52451;DHT22;38366;53.176;6.540;2023-03-11T17:42:56;4.70;99.90
52451;DHT22;38366;53.176;6.540;2023-03-11T17:45:21;4.70;99.90